Time;durP1;ratioP1;P1;durP2;ratioP2;P2;SDS_P1;SDS_P2;PMS_P1;PMS_P2;Temp;Humidity;BMP_temperature;BMP_pressure;BME280_temperature;BME280_humidity;BME280_pressure;Samples;Min_cycle;Max_cycle;Signal;HPM_P1;HPM_P2
2023/08/22 00:02:47;;;;;;;7.15;4.88;;;;;;;;;;8269332;28;20022;-57
2023/08/22 00:06:48;;;;;;;10.73;5.00;;;;;;;;;;8272737;28;20098;-57
2023/08/22 00:10:48;;;;;;;8.32;4.95;;;;;;;;;;8271953;28;20030;-58
2023/08/22 00:14:50;;;;;;;7.47;5.07;;;;;;;;;;8265590;28;20124;-58
2023/08/22 00:18:50;;;;;;;5.53;4.65;;;;;;;;;;8267624;28;20057;-58
2023/08/22 00:22:50;;;;;;;8.68;5.45;;;;;;;;;;8268777;28;20021;-58
2023/08/22 00:26:50;;;;;;;7.10;4.60;;;;;;;;;;8268974;28;20026;-58
2023/08/22 00:30:54;;;;;;;8.05;4.97;;;;;;;;;;8268676;28;20040;-58
2023/08/22 00:34:54;;;;;;;5.75;4.80;;;;;;;;;;8265304;28;21752;-58
2023/08/22 00:38:54;;;;;;;5.78;5.18;;;;;;;;;;8270490;28;20029;-58
2023/08/22 00:42:54;;;;;;;6.30;4.80;;;;;;;;;;8271819;28;20411;-57
2023/08/22 00:46:55;;;;;;;7.35;5.35;;;;;;;;;;8270130;28;20034;-58
2023/08/22 00:50:55;;;;;;;8.27;4.93;;;;;;;;;;8270180;28;20029;-58
2023/08/22 00:54:56;;;;;;;6.00;4.70;;;;;;;;;;8270772;28;20028;-57
2023/08/22 00:58:57;;;;;;;6.33;4.50;;;;;;;;;;8268052;28;20749;-57
2023/08/22 01:02:58;;;;;;;8.48;4.63;;;;;;;;;;8266251;28;20033;-57
2023/08/22 01:07:17;;;;;;;7.80;4.65;;;;;;;;;;8267965;28;20029;-57
2023/08/22 01:11:24;;;;;;;6.60;4.55;;;;;;;;;;8271356;28;20029;-57
2023/08/22 01:15:26;;;;;;;5.15;4.65;;;;;;;;;;8266251;28;20108;-58
2023/08/22 01:19:26;;;;;;;8.63;4.60;;;;;;;;;;8268330;28;20030;-58
2023/08/22 01:23:26;;;;;;;6.37;4.40;;;;;;;;;;8268445;28;20053;-60
2023/08/22 01:27:29;;;;;;;7.10;4.50;;;;;;;;;;8263777;28;21332;-57
2023/08/22 01:31:32;;;;;;;9.20;4.97;;;;;;;;;;8266147;28;20037;-58
2023/08/22 01:35:34;;;;;;;4.53;4.13;;;;;;;;;;8266338;28;20026;-57
2023/08/22 01:39:35;;;;;;;11.02;4.75;;;;;;;;;;8268724;28;20050;-58
2023/08/22 01:43:36;;;;;;;5.45;4.88;;;;;;;;;;8271479;28;20132;-57
2023/08/22 01:47:36;;;;;;;8.23;5.05;;;;;;;;;;8267016;28;20924;-58
2023/08/22 01:51:37;;;;;;;4.70;4.23;;;;;;;;;;8271384;28;20029;-57
2023/08/22 01:55:37;;;;;;;4.73;4.23;;;;;;;;;;8269150;28;20030;-58
2023/08/22 01:59:37;;;;;;;5.93;4.60;;;;;;;;;;8267703;28;20040;-58
2023/08/22 02:03:41;;;;;;;7.32;4.95;;;;;;;;;;8268235;28;20091;-57
2023/08/22 02:07:41;;;;;;;8.18;4.75;;;;;;;;;;8271537;28;20029;-57
2023/08/22 02:11:41;;;;;;;4.72;4.32;;;;;;;;;;8271357;28;20032;-58
2023/08/22 02:15:41;;;;;;;6.50;4.33;;;;;;;;;;8266772;28;20096;-58
2023/08/22 02:19:42;;;;;;;6.80;4.63;;;;;;;;;;8269367;28;20065;-58
2023/08/22 02:23:42;;;;;;;5.55;4.28;;;;;;;;;;8269090;28;20036;-58
2023/08/22 02:27:42;;;;;;;7.13;4.40;;;;;;;;;;8268914;28;20026;-58
2023/08/22 02:31:42;;;;;;;7.30;4.63;;;;;;;;;;8264442;28;20135;-58
2023/08/22 02:35:43;;;;;;;7.22;4.38;;;;;;;;;;8266368;28;20014;-58
2023/08/22 02:39:43;;;;;;;6.43;4.40;;;;;;;;;;8268774;28;20771;-57
2023/08/22 02:43:43;;;;;;;10.15;4.90;;;;;;;;;;8269517;28;20204;-57
2023/08/22 02:47:43;;;;;;;5.70;4.43;;;;;;;;;;8267084;28;20553;-57
2023/08/22 02:51:43;;;;;;;6.10;4.53;;;;;;;;;;8275182;28;20068;-58
2023/08/22 02:55:47;;;;;;;8.77;4.70;;;;;;;;;;8274392;28;20037;-57
2023/08/22 02:59:47;;;;;;;5.80;4.72;;;;;;;;;;8273801;28;20033;-57
2023/08/22 03:03:50;;;;;;;6.97;4.70;;;;;;;;;;8273517;28;20973;-58
2023/08/22 03:07:50;;;;;;;5.55;4.57;;;;;;;;;;8275848;28;20033;-58
2023/08/22 03:11:50;;;;;;;7.10;4.32;;;;;;;;;;8273782;28;20029;-58
2023/08/22 03:15:52;;;;;;;5.60;4.50;;;;;;;;;;8273905;28;20144;-58
2023/08/22 03:19:52;;;;;;;4.35;3.88;;;;;;;;;;8275524;28;20032;-58
2023/08/22 03:23:52;;;;;;;4.47;4.07;;;;;;;;;;8275284;28;20033;-58
2023/08/22 03:27:53;;;;;;;7.22;4.47;;;;;;;;;;8270490;28;20056;-58
2023/08/22 03:31:53;;;;;;;7.05;3.88;;;;;;;;;;8273723;28;20053;-57
2023/08/22 03:35:54;;;;;;;5.38;4.00;;;;;;;;;;8270561;28;20025;-58
2023/08/22 03:39:54;;;;;;;8.10;4.20;;;;;;;;;;8273137;28;20808;-58
2023/08/22 03:43:54;;;;;;;4.57;4.13;;;;;;;;;;8271006;28;20105;-58
2023/08/22 03:47:54;;;;;;;7.13;4.67;;;;;;;;;;8272508;28;20042;-58
2023/08/22 03:51:55;;;;;;;7.03;5.05;;;;;;;;;;8273301;28;20037;-58
2023/08/22 03:55:55;;;;;;;8.27;5.50;;;;;;;;;;8272272;28;20022;-58
2023/08/22 03:59:55;;;;;;;9.05;5.10;;;;;;;;;;8262601;28;20115;-58
2023/08/22 04:03:55;;;;;;;6.18;4.70;;;;;;;;;;8264878;28;20113;-57
2023/08/22 04:07:55;;;;;;;7.22;4.65;;;;;;;;;;8267183;28;20126;-58
2023/08/22 04:11:58;;;;;;;10.60;4.80;;;;;;;;;;8275328;28;20053;-57
2023/08/22 04:15:58;;;;;;;6.67;4.97;;;;;;;;;;8272092;28;20965;-58
2023/08/22 04:19:58;;;;;;;8.85;5.28;;;;;;;;;;8275372;28;20054;-58
2023/08/22 04:23:58;;;;;;;6.75;5.47;;;;;;;;;;8272582;28;20037;-57
2023/08/22 04:27:59;;;;;;;9.85;5.88;;;;;;;;;;8262096;28;20928;-57
2023/08/22 04:32:01;;;;;;;8.75;5.72;;;;;;;;;;8270815;28;20041;-57
2023/08/22 04:36:03;;;;;;;8.18;5.40;;;;;;;;;;8274496;28;20083;-58
2023/08/22 04:40:03;;;;;;;7.63;5.35;;;;;;;;;;8271484;28;20095;-58
2023/08/22 04:44:03;;;;;;;11.70;5.87;;;;;;;;;;8270799;28;20086;-58
2023/08/22 04:48:04;;;;;;;6.63;5.78;;;;;;;;;;8270526;28;20442;-58
2023/08/22 04:52:04;;;;;;;14.40;5.68;;;;;;;;;;8272979;28;20021;-57
2023/08/22 04:56:04;;;;;;;15.73;6.38;;;;;;;;;;8269898;28;20586;-58
2023/08/22 05:00:07;;;;;;;13.60;6.60;;;;;;;;;;8272540;28;20034;-60
2023/08/22 05:04:08;;;;;;;12.57;7.32;;;;;;;;;;8265601;28;22133;-58
2023/08/22 05:08:08;;;;;;;16.87;7.27;;;;;;;;;;8273375;28;20650;-58
2023/08/22 05:12:08;;;;;;;15.27;7.28;;;;;;;;;;8269789;28;22792;-58
2023/08/22 05:16:09;;;;;;;13.77;7.50;;;;;;;;;;8270793;28;20048;-58
2023/08/22 05:20:13;;;;;;;8.93;6.83;;;;;;;;;;8270756;28;20296;-58
2023/08/22 05:24:13;;;;;;;16.75;6.95;;;;;;;;;;8270432;28;21040;-58
2023/08/22 05:28:13;;;;;;;9.83;6.23;;;;;;;;;;8270193;28;20121;-58
2023/08/22 05:32:13;;;;;;;15.87;6.47;;;;;;;;;;8268623;28;20392;-58
2023/08/22 05:36:14;;;;;;;11.40;6.32;;;;;;;;;;8273785;28;20450;-58
2023/08/22 05:40:14;;;;;;;10.63;5.75;;;;;;;;;;8273313;28;20128;-58
2023/08/22 05:44:14;;;;;;;12.02;5.97;;;;;;;;;;8269666;28;20087;-58
2023/08/22 05:48:14;;;;;;;13.65;5.57;;;;;;;;;;8269324;28;20034;-58
2023/08/22 05:52:15;;;;;;;10.70;5.43;;;;;;;;;;8269179;28;20029;-58
2023/08/22 05:56:15;;;;;;;10.13;5.22;;;;;;;;;;8267563;28;20021;-58
2023/08/22 06:00:16;;;;;;;22.52;5.50;;;;;;;;;;8271269;28;20033;-58
2023/08/22 06:04:17;;;;;;;15.15;5.78;;;;;;;;;;8267619;28;20025;-58
2023/08/22 06:08:18;;;;;;;12.00;5.35;;;;;;;;;;8267319;28;20121;-58
2023/08/22 06:12:19;;;;;;;9.63;5.10;;;;;;;;;;8266130;28;20072;-58
2023/08/22 06:16:19;;;;;;;13.85;4.60;;;;;;;;;;8266890;28;20049;-60
2023/08/22 06:20:19;;;;;;;12.50;4.55;;;;;;;;;;8266700;28;20030;-60
2023/08/22 06:24:19;;;;;;;11.38;4.03;;;;;;;;;;8272585;28;20037;-59
2023/08/22 06:28:19;;;;;;;7.50;3.50;;;;;;;;;;8275299;28;20061;-59
2023/08/22 06:32:21;;;;;;;12.25;3.85;;;;;;;;;;8276495;28;20359;-59
2023/08/22 06:36:22;;;;;;;10.03;5.13;;;;;;;;;;8274255;28;20017;-59
2023/08/22 06:40:22;;;;;;;10.65;4.70;;;;;;;;;;8264994;28;20017;-59
2023/08/22 06:44:22;;;;;;;6.80;3.78;;;;;;;;;;8268295;28;20033;-59
2023/08/22 06:48:23;;;;;;;9.82;3.60;;;;;;;;;;8274113;28;20045;-59
2023/08/22 06:52:23;;;;;;;7.80;3.00;;;;;;;;;;8273942;28;20029;-59
2023/08/22 06:56:24;;;;;;;5.88;2.63;;;;;;;;;;8268678;28;20414;-60
2023/08/22 07:00:24;;;;;;;6.35;2.65;;;;;;;;;;8274631;28;20041;-59
2023/08/22 07:04:24;;;;;;;4.38;2.80;;;;;;;;;;8273597;28;20143;-59
2023/08/22 07:08:24;;;;;;;4.07;2.57;;;;;;;;;;8272030;28;20030;-59
2023/08/22 07:12:25;;;;;;;4.18;2.42;;;;;;;;;;8259947;28;20367;-60
2023/08/22 07:16:25;;;;;;;4.00;2.30;;;;;;;;;;8261740;28;20117;-59
2023/08/22 07:20:25;;;;;;;6.80;2.60;;;;;;;;;;8263582;28;20464;-59
2023/08/22 07:24:25;;;;;;;7.75;2.70;;;;;;;;;;8263255;28;20037;-59
2023/08/22 07:28:26;;;;;;;5.82;2.80;;;;;;;;;;8262426;28;20030;-59
2023/08/22 07:32:26;;;;;;;7.90;2.90;;;;;;;;;;8259013;28;20045;-59
2023/08/22 07:36:26;;;;;;;7.63;2.63;;;;;;;;;;8259046;28;20359;-59
2023/08/22 07:40:26;;;;;;;7.15;2.28;;;;;;;;;;8261888;28;20512;-60
2023/08/22 07:44:26;;;;;;;6.30;2.20;;;;;;;;;;8261516;28;20018;-60
2023/08/22 07:48:27;;;;;;;4.82;2.28;;;;;;;;;;8259976;28;20367;-59
2023/08/22 07:52:27;;;;;;;9.48;2.35;;;;;;;;;;8260359;28;20028;-60
2023/08/22 07:56:27;;;;;;;9.33;2.10;;;;;;;;;;8262301;28;20028;-60
2023/08/22 08:00:27;;;;;;;5.17;2.30;;;;;;;;;;8269317;28;20042;-59
2023/08/22 08:04:28;;;;;;;3.60;2.08;;;;;;;;;;8267881;28;20022;-59
2023/08/22 08:08:28;;;;;;;4.90;2.10;;;;;;;;;;8263158;28;20025;-59
2023/08/22 08:12:28;;;;;;;4.00;2.15;;;;;;;;;;8257495;28;20478;-59
2023/08/22 08:16:28;;;;;;;4.40;2.30;;;;;;;;;;8255603;28;20037;-60
2023/08/22 08:20:28;;;;;;;3.20;1.92;;;;;;;;;;8260401;28;20944;-59
2023/08/22 08:24:29;;;;;;;6.70;2.13;;;;;;;;;;8258917;28;20026;-60
2023/08/22 08:28:30;;;;;;;2.25;1.90;;;;;;;;;;8258269;28;20164;-59
2023/08/22 08:32:30;;;;;;;3.00;1.88;;;;;;;;;;8260558;28;20815;-59
2023/08/22 08:36:30;;;;;;;3.35;1.95;;;;;;;;;;8262138;28;20449;-60
2023/08/22 08:40:34;;;;;;;5.78;2.03;;;;;;;;;;8263621;28;20230;-60
2023/08/22 08:44:34;;;;;;;4.28;1.85;;;;;;;;;;8258876;28;20045;-60
2023/08/22 08:48:35;;;;;;;3.72;2.10;;;;;;;;;;8267959;28;21639;-60
2023/08/22 08:52:36;;;;;;;3.35;1.80;;;;;;;;;;8266334;28;20034;-60
2023/08/22 08:56:36;;;;;;;2.03;1.77;;;;;;;;;;8261198;28;20707;-60
2023/08/22 09:00:37;;;;;;;2.75;1.83;;;;;;;;;;8259106;28;20529;-60
2023/08/22 09:04:37;;;;;;;3.60;2.25;;;;;;;;;;8262557;28;20146;-60
2023/08/22 09:08:39;;;;;;;3.60;1.80;;;;;;;;;;8261859;28;20425;-59
2023/08/22 09:12:39;;;;;;;3.13;2.10;;;;;;;;;;8263708;28;20030;-60
2023/08/22 09:16:40;;;;;;;5.70;1.90;;;;;;;;;;8259504;28;20137;-60
2023/08/22 09:20:45;;;;;;;5.53;1.70;;;;;;;;;;8258979;28;20397;-60
2023/08/22 09:24:52;;;;;;;6.15;2.30;;;;;;;;;;8258814;28;20087;-60
2023/08/22 09:28:53;;;;;;;2.63;1.80;;;;;;;;;;8268884;28;20421;-60
2023/08/22 09:32:58;;;;;;;1.63;1.50;;;;;;;;;;8259251;28;20410;-60
2023/08/22 09:36:58;;;;;;;3.97;2.20;;;;;;;;;;8260626;28;20511;-60
2023/08/22 09:40:58;;;;;;;3.75;2.10;;;;;;;;;;8258149;28;20057;-60
2023/08/22 09:44:59;;;;;;;2.77;1.40;;;;;;;;;;8266342;28;20108;-60
2023/08/22 09:48:59;;;;;;;1.67;1.30;;;;;;;;;;8255869;28;20099;-60
2023/08/22 09:53:00;;;;;;;2.45;1.73;;;;;;;;;;8255262;28;20282;-60
2023/08/22 09:57:01;;;;;;;2.40;1.80;;;;;;;;;;8258301;28;20036;-60
2023/08/22 10:01:01;;;;;;;;;;;;;;;;;;8269218;28;20033;-60
2023/08/22 10:05:02;;;;;;;5.00;1.80;;;;;;;;;;8261273;28;19936;-60
2023/08/22 10:09:07;;;;;;;4.28;1.73;;;;;;;;;;8263571;28;20168;-60
2023/08/22 10:13:09;;;;;;;1.95;1.30;;;;;;;;;;8266771;28;20576;-60
2023/08/22 10:17:09;;;;;;;;;;;;;;;;;;8259677;28;20561;-59
2023/08/22 10:21:09;;;;;;;2.10;1.52;;;;;;;;;;8260059;28;20177;-60
2023/08/22 10:25:09;;;;;;;2.95;1.50;;;;;;;;;;8265878;28;20319;-60
2023/08/22 10:29:18;;;;;;;1.60;1.40;;;;;;;;;;8262897;28;20466;-60
2023/08/22 10:33:26;;;;;;;3.97;1.40;;;;;;;;;;8262816;28;20561;-60
2023/08/22 10:37:27;;;;;;;1.17;1.00;;;;;;;;;;8262189;28;20026;-59
2023/08/22 10:41:54;;;;;;;4.90;1.30;;;;;;;;;;8264685;28;20377;-60
2023/08/22 10:45:54;;;;;;;2.28;1.20;;;;;;;;;;8258108;28;20043;-60
2023/08/22 10:49:55;;;;;;;1.55;1.20;;;;;;;;;;8263581;28;20502;-60
2023/08/22 10:54:14;;;;;;;2.25;1.30;;;;;;;;;;8267907;28;20095;-59
2023/08/22 10:58:36;;;;;;;1.63;1.17;;;;;;;;;;8268793;28;20330;-60
2023/08/22 11:02:37;;;;;;;3.25;1.30;;;;;;;;;;8267196;28;20040;-59
2023/08/22 11:06:38;;;;;;;1.58;1.00;;;;;;;;;;8267253;28;20026;-59
2023/08/22 11:10:41;;;;;;;2.25;1.10;;;;;;;;;;8266213;28;20598;-60
2023/08/22 11:14:44;;;;;;;1.35;1.20;;;;;;;;;;8266227;28;20033;-59
2023/08/22 11:18:46;;;;;;;2.00;1.25;;;;;;;;;;8273844;28;20049;-60
2023/08/22 11:22:46;;;;;;;;;;;;;;;;;;8267274;28;20076;-60
2023/08/22 11:26:50;;;;;;;2.78;1.73;;;;;;;;;;8264965;28;20396;-59
2023/08/22 11:30:50;;;;;;;2.65;1.40;;;;;;;;;;8267490;28;20048;-59
2023/08/22 11:34:51;;;;;;;2.33;1.33;;;;;;;;;;8267118;28;20034;-59
2023/08/22 11:38:52;;;;;;;1.58;1.40;;;;;;;;;;8265005;28;20033;-60
2023/08/22 11:42:56;;;;;;;3.83;1.58;;;;;;;;;;8264700;28;20100;-60
2023/08/22 11:46:57;;;;;;;4.00;1.50;;;;;;;;;;8264052;28;20045;-60
2023/08/22 11:50:58;;;;;;;2.22;1.50;;;;;;;;;;8266345;28;20188;-59
2023/08/22 11:55:02;;;;;;;2.60;1.25;;;;;;;;;;8265382;28;20199;-60
2023/08/22 11:59:03;;;;;;;5.13;1.77;;;;;;;;;;8260612;28;20022;-59
2023/08/22 12:03:05;;;;;;;2.28;1.50;;;;;;;;;;8258271;28;20060;-59
2023/08/22 12:07:05;;;;;;;2.78;1.40;;;;;;;;;;8261455;28;20060;-59
2023/08/22 12:11:06;;;;;;;5.70;1.50;;;;;;;;;;8261985;28;20037;-59
2023/08/22 12:15:06;;;;;;;4.37;1.40;;;;;;;;;;8259179;28;20037;-60
2023/08/22 12:19:11;;;;;;;1.90;1.30;;;;;;;;;;8260933;28;20073;-59
2023/08/22 12:23:12;;;;;;;2.20;1.40;;;;;;;;;;8261955;28;20077;-60
2023/08/22 12:27:12;;;;;;;4.70;1.20;;;;;;;;;;8261397;28;20028;-59
2023/08/22 12:31:12;;;;;;;1.50;1.20;;;;;;;;;;8261455;28;20038;-59
2023/08/22 12:35:13;;;;;;;2.47;1.40;;;;;;;;;;8263019;28;20033;-59
2023/08/22 12:39:13;;;;;;;2.85;1.40;;;;;;;;;;8260735;28;20879;-59
2023/08/22 12:43:13;;;;;;;5.40;1.45;;;;;;;;;;8261718;28;20243;-59
2023/08/22 12:47:13;;;;;;;3.15;1.40;;;;;;;;;;8258325;28;20046;-59
2023/08/22 12:51:13;;;;;;;4.72;1.40;;;;;;;;;;8262692;28;20486;-59
2023/08/22 12:55:13;;;;;;;1.77;1.25;;;;;;;;;;8261395;28;20045;-59
2023/08/22 12:59:14;;;;;;;3.22;1.33;;;;;;;;;;8264878;28;20026;-59
2023/08/22 13:03:14;;;;;;;2.15;1.42;;;;;;;;;;8260710;28;20117;-60
2023/08/22 13:07:14;;;;;;;3.60;1.65;;;;;;;;;;8273175;28;20121;-60
2023/08/22 13:11:14;;;;;;;1.98;1.50;;;;;;;;;;8264612;28;20198;-61
2023/08/22 13:15:14;;;;;;;2.60;1.40;;;;;;;;;;8261558;28;20029;-60
2023/08/22 13:19:15;;;;;;;2.88;1.20;;;;;;;;;;8262707;28;20482;-60
2023/08/22 13:23:15;;;;;;;1.73;1.20;;;;;;;;;;8263668;28;20140;-61
2023/08/22 13:27:15;;;;;;;2.08;1.48;;;;;;;;;;8263633;28;20135;-60
2023/08/22 13:31:16;;;;;;;1.80;1.20;;;;;;;;;;8262552;28;20034;-61
2023/08/22 13:35:16;;;;;;;1.80;1.30;;;;;;;;;;8263131;28;20824;-60
2023/08/22 13:39:16;;;;;;;2.90;1.50;;;;;;;;;;8262623;28;20412;-60
2023/08/22 13:43:16;;;;;;;3.92;1.50;;;;;;;;;;8263963;28;20029;-60
2023/08/22 13:47:16;;;;;;;1.40;1.20;;;;;;;;;;8260733;28;20148;-60
2023/08/22 13:51:17;;;;;;;4.75;1.48;;;;;;;;;;8261095;28;20488;-60
2023/08/22 13:55:17;;;;;;;2.10;1.60;;;;;;;;;;8264803;28;20081;-60
2023/08/22 13:59:17;;;;;;;2.35;1.40;;;;;;;;;;8262851;28;20024;-60
2023/08/22 14:03:17;;;;;;;3.25;1.63;;;;;;;;;;8262398;28;20459;-60
2023/08/22 14:07:17;;;;;;;2.33;1.70;;;;;;;;;;8261077;28;20383;-60
2023/08/22 14:11:18;;;;;;;2.70;1.60;;;;;;;;;;8260131;28;20144;-60
2023/08/22 14:15:18;;;;;;;3.50;1.58;;;;;;;;;;8262451;28;20056;-60
2023/08/22 14:19:18;;;;;;;2.13;1.40;;;;;;;;;;8265571;28;20608;-60
2023/08/22 14:23:18;;;;;;;2.45;1.55;;;;;;;;;;8262046;28;20538;-59
2023/08/22 14:27:18;;;;;;;2.15;1.45;;;;;;;;;;8262628;28;20410;-59
2023/08/22 14:31:19;;;;;;;2.22;1.45;;;;;;;;;;8263462;28;20552;-60
2023/08/22 14:35:19;;;;;;;2.95;1.58;;;;;;;;;;8261777;28;20502;-59
2023/08/22 14:39:19;;;;;;;1.73;1.20;;;;;;;;;;8261281;28;20037;-60
2023/08/22 14:43:21;;;;;;;1.88;1.52;;;;;;;;;;8265077;28;20025;-59
2023/08/22 14:47:21;;;;;;;;;;;;;;;;;;8266341;28;20033;-59
2023/08/22 14:51:21;;;;;;;2.33;1.40;;;;;;;;;;8271324;28;20408;-59
2023/08/22 14:55:21;;;;;;;5.07;1.50;;;;;;;;;;8266330;28;20022;-59
2023/08/22 14:59:23;;;;;;;1.80;1.50;;;;;;;;;;8268452;28;20119;-60
2023/08/22 15:03:23;;;;;;;3.72;1.30;;;;;;;;;;8268149;28;20540;-59
2023/08/22 15:07:23;;;;;;;3.28;1.60;;;;;;;;;;8267274;28;20302;-60
2023/08/22 15:11:23;;;;;;;1.75;1.50;;;;;;;;;;8268157;28;20025;-59
2023/08/22 15:15:24;;;;;;;2.63;1.50;;;;;;;;;;8264233;28;20064;-59
2023/08/22 15:19:24;;;;;;;1.97;1.47;;;;;;;;;;8267383;28;20497;-60
2023/08/22 15:23:24;;;;;;;2.45;1.60;;;;;;;;;;8269121;28;20017;-59
2023/08/22 15:27:24;;;;;;;2.63;1.38;;;;;;;;;;8265850;28;20438;-60
2023/08/22 15:31:24;;;;;;;3.65;1.40;;;;;;;;;;8265593;28;20030;-59
2023/08/22 15:35:25;;;;;;;1.83;1.50;;;;;;;;;;8264516;28;20021;-59
2023/08/22 15:39:25;;;;;;;2.80;1.50;;;;;;;;;;8269005;28;20462;-59
2023/08/22 15:43:25;;;;;;;3.63;1.63;;;;;;;;;;8266869;28;20373;-59
2023/08/22 15:47:26;;;;;;;2.28;1.52;;;;;;;;;;8271331;28;20493;-59
2023/08/22 15:51:26;;;;;;;3.22;1.65;;;;;;;;;;8267291;28;20455;-59
2023/08/22 15:55:26;;;;;;;2.70;1.70;;;;;;;;;;8266041;28;20033;-60
2023/08/22 15:59:26;;;;;;;4.53;1.77;;;;;;;;;;8265465;28;20732;-59
2023/08/22 16:03:27;;;;;;;4.60;1.58;;;;;;;;;;8259946;28;20243;-59
2023/08/22 16:07:27;;;;;;;2.80;1.60;;;;;;;;;;8265835;28;20025;-59
2023/08/22 16:11:27;;;;;;;3.83;1.85;;;;;;;;;;8265153;28;20117;-59
2023/08/22 16:15:27;;;;;;;2.83;2.00;;;;;;;;;;8265505;28;20040;-59
2023/08/22 16:19:27;;;;;;;2.70;1.90;;;;;;;;;;8264395;28;20557;-59
2023/08/22 16:23:28;;;;;;;2.78;1.70;;;;;;;;;;8263045;28;20021;-59
2023/08/22 16:27:28;;;;;;;4.32;2.13;;;;;;;;;;8263448;28;20299;-58
2023/08/22 16:31:30;;;;;;;3.47;2.00;;;;;;;;;;8261837;28;20057;-58
2023/08/22 16:35:30;;;;;;;4.35;1.98;;;;;;;;;;8263164;28;20390;-59
2023/08/22 16:39:30;;;;;;;4.90;2.17;;;;;;;;;;8264011;28;20032;-59
2023/08/22 16:43:30;;;;;;;5.65;1.80;;;;;;;;;;8263399;28;20470;-59
2023/08/22 16:47:31;;;;;;;2.08;1.70;;;;;;;;;;8263343;28;20028;-59
2023/08/22 16:51:31;;;;;;;2.58;2.10;;;;;;;;;;8263807;28;20057;-58
2023/08/22 16:55:31;;;;;;;2.72;2.10;;;;;;;;;;8262323;28;20670;-58
2023/08/22 16:59:32;;;;;;;3.77;1.93;;;;;;;;;;8265722;28;20041;-59
2023/08/22 17:03:32;;;;;;;2.50;1.85;;;;;;;;;;8262198;28;20580;-58
2023/08/22 17:07:32;;;;;;;2.95;1.80;;;;;;;;;;8259527;28;20624;-59
2023/08/22 17:11:33;;;;;;;3.42;1.90;;;;;;;;;;8262293;28;20121;-58
2023/08/22 17:15:33;;;;;;;2.60;1.80;;;;;;;;;;8263034;28;20048;-58
2023/08/22 17:19:33;;;;;;;2.10;1.90;;;;;;;;;;8263015;28;20374;-60
2023/08/22 17:23:33;;;;;;;2.15;1.63;;;;;;;;;;8261716;28;20032;-58
2023/08/22 17:27:34;;;;;;;3.63;1.90;;;;;;;;;;8260289;28;20025;-58
2023/08/22 17:31:34;;;;;;;1.98;1.67;;;;;;;;;;8264091;28;20087;-58
2023/08/22 17:35:34;;;;;;;4.63;1.92;;;;;;;;;;8264693;28;20030;-58
2023/08/22 17:39:35;;;;;;;3.35;1.90;;;;;;;;;;8264207;28;20217;-58
2023/08/22 17:43:35;;;;;;;3.35;2.17;;;;;;;;;;8262349;28;20024;-58
2023/08/22 17:47:36;;;;;;;4.82;2.30;;;;;;;;;;8262013;28;20052;-58
2023/08/22 17:51:36;;;;;;;4.53;2.37;;;;;;;;;;8261480;28;20060;-58
2023/08/22 17:55:39;;;;;;;5.25;2.42;;;;;;;;;;8261809;28;20655;-58
2023/08/22 17:59:39;;;;;;;;;;;;;;;;;;8263662;28;20650;-58
2023/08/22 18:03:39;;;;;;;2.63;2.08;;;;;;;;;;8260158;28;19917;-57
2023/08/22 18:07:39;;;;;;;4.95;2.30;;;;;;;;;;8262857;28;20044;-58
2023/08/22 18:11:39;;;;;;;3.97;2.28;;;;;;;;;;8263626;28;20040;-58
2023/08/22 18:15:39;;;;;;;3.17;2.08;;;;;;;;;;8262471;28;20049;-59
2023/08/22 18:19:40;;;;;;;2.40;2.20;;;;;;;;;;8266663;28;20363;-58
2023/08/22 18:23:40;;;;;;;4.63;2.33;;;;;;;;;;8271391;28;20032;-58
2023/08/22 18:27:40;;;;;;;4.30;2.40;;;;;;;;;;8271737;28;20018;-58
2023/08/22 18:31:41;;;;;;;4.35;2.20;;;;;;;;;;8267737;28;20045;-58
2023/08/22 18:35:41;;;;;;;4.50;2.43;;;;;;;;;;8268723;28;20375;-57
2023/08/22 18:39:42;;;;;;;2.92;2.20;;;;;;;;;;8268740;28;20610;-57
2023/08/22 18:43:43;;;;;;;3.88;2.35;;;;;;;;;;8271081;28;20041;-57
2023/08/22 18:47:43;;;;;;;3.15;2.30;;;;;;;;;;8267513;28;20367;-58
2023/08/22 18:51:43;;;;;;;3.40;2.00;;;;;;;;;;8268415;28;20313;-58
2023/08/22 18:55:44;;;;;;;3.83;2.40;;;;;;;;;;8267675;28;20065;-58
2023/08/22 18:59:44;;;;;;;3.53;2.30;;;;;;;;;;8267970;28;20040;-58
2023/08/22 19:03:44;;;;;;;3.63;2.30;;;;;;;;;;8265484;28;20699;-57
2023/08/22 19:07:44;;;;;;;2.88;2.20;;;;;;;;;;8266380;28;20026;-57
2023/08/22 19:11:45;;;;;;;4.22;2.45;;;;;;;;;;8268215;28;20513;-57
2023/08/22 19:15:45;;;;;;;4.32;2.30;;;;;;;;;;8265636;28;20072;-57
2023/08/22 19:19:45;;;;;;;2.70;2.03;;;;;;;;;;8264948;28;20542;-58
2023/08/22 19:23:45;;;;;;;5.50;2.40;;;;;;;;;;8268822;28;20312;-58
2023/08/22 19:27:46;;;;;;;4.82;2.15;;;;;;;;;;8266755;28;20018;-58
2023/08/22 19:31:46;;;;;;;3.60;2.40;;;;;;;;;;8264975;28;20777;-58
2023/08/22 19:35:46;;;;;;;4.20;2.20;;;;;;;;;;8264617;28;20037;-57
2023/08/22 19:39:47;;;;;;;4.53;2.53;;;;;;;;;;8266427;28;20033;-58
2023/08/22 19:43:47;;;;;;;5.90;2.72;;;;;;;;;;8266579;28;20147;-58
2023/08/22 19:47:47;;;;;;;5.40;2.37;;;;;;;;;;8262772;28;20414;-58
2023/08/22 19:51:47;;;;;;;4.97;2.60;;;;;;;;;;8266276;28;20484;-58
2023/08/22 19:55:48;;;;;;;3.53;2.33;;;;;;;;;;8267067;28;20022;-57
2023/08/22 19:59:48;;;;;;;3.35;2.38;;;;;;;;;;8268059;28;20032;-58
2023/08/22 20:03:48;;;;;;;2.83;2.20;;;;;;;;;;8263847;28;20038;-57
2023/08/22 20:07:50;;;;;;;3.75;2.50;;;;;;;;;;8268120;28;20050;-57
2023/08/22 20:11:51;;;;;;;8.48;2.83;;;;;;;;;;8269292;28;20557;-56
2023/08/22 20:15:51;;;;;;;5.85;2.90;;;;;;;;;;8265707;28;20127;-57
2023/08/22 20:19:51;;;;;;;4.30;2.50;;;;;;;;;;8264536;28;20330;-57
2023/08/22 20:23:51;;;;;;;10.80;2.70;;;;;;;;;;8265495;28;20029;-57
2023/08/22 20:27:51;;;;;;;5.45;2.63;;;;;;;;;;8266420;28;20017;-57
2023/08/22 20:31:52;;;;;;;5.18;2.80;;;;;;;;;;8265572;28;20045;-55
2023/08/22 20:35:53;;;;;;;3.70;2.57;;;;;;;;;;8262686;28;20022;-56
2023/08/22 20:39:53;;;;;;;8.70;3.03;;;;;;;;;;8255876;28;20029;-57
2023/08/22 20:43:53;;;;;;;4.43;2.75;;;;;;;;;;8260743;28;20017;-58
2023/08/22 20:47:53;;;;;;;3.38;2.75;;;;;;;;;;8257471;28;20037;-57
2023/08/22 20:51:53;;;;;;;5.93;2.90;;;;;;;;;;8259032;28;20497;-57
2023/08/22 20:55:54;;;;;;;4.38;2.40;;;;;;;;;;8260980;28;20029;-57
2023/08/22 20:59:54;;;;;;;5.57;2.78;;;;;;;;;;8261915;28;20033;-58
2023/08/22 21:03:54;;;;;;;2.90;2.30;;;;;;;;;;8254998;28;20034;-58
2023/08/22 21:07:54;;;;;;;4.22;2.60;;;;;;;;;;8254797;28;20501;-56
2023/08/22 21:11:54;;;;;;;5.65;2.90;;;;;;;;;;8258552;28;20034;-57
2023/08/22 21:15:54;;;;;;;3.55;2.90;;;;;;;;;;8259092;28;20037;-57
2023/08/22 21:19:55;;;;;;;5.38;2.90;;;;;;;;;;8261605;28;20153;-56
2023/08/22 21:23:56;;;;;;;6.53;3.00;;;;;;;;;;8259638;28;20173;-57
2023/08/22 21:27:56;;;;;;;4.40;2.90;;;;;;;;;;8260696;28;20108;-57
2023/08/22 21:31:56;;;;;;;5.70;2.83;;;;;;;;;;8256869;28;20256;-57
2023/08/22 21:35:56;;;;;;;3.83;2.88;;;;;;;;;;8258927;28;20514;-56
2023/08/22 21:39:57;;;;;;;4.47;2.85;;;;;;;;;;8258440;28;20060;-57
2023/08/22 21:43:57;;;;;;;6.07;2.97;;;;;;;;;;8259428;28;20030;-57
2023/08/22 21:47:57;;;;;;;6.38;2.70;;;;;;;;;;8253924;28;20050;-57
2023/08/22 21:51:57;;;;;;;5.27;2.83;;;;;;;;;;8263262;28;20092;-57
2023/08/22 21:55:58;;;;;;;5.63;3.33;;;;;;;;;;8269255;28;20126;-56
2023/08/22 21:59:58;;;;;;;3.87;2.50;;;;;;;;;;8266425;28;20066;-56
2023/08/22 22:03:58;;;;;;;4.78;2.72;;;;;;;;;;8264964;28;20049;-57
2023/08/22 22:07:58;;;;;;;4.35;2.83;;;;;;;;;;8273858;28;20165;-57
2023/08/22 22:11:58;;;;;;;3.40;2.97;;;;;;;;;;8272445;28;20104;-57
2023/08/22 22:15:59;;;;;;;5.18;3.03;;;;;;;;;;8270031;28;20099;-57
2023/08/22 22:19:59;;;;;;;6.18;3.60;;;;;;;;;;8267912;28;20026;-56
2023/08/22 22:23:59;;;;;;;4.85;3.38;;;;;;;;;;8270718;28;20183;-56
2023/08/22 22:27:59;;;;;;;6.47;3.50;;;;;;;;;;8270572;28;20136;-56
2023/08/22 22:31:59;;;;;;;6.80;3.50;;;;;;;;;;8269741;28;20149;-56
2023/08/22 22:35:59;;;;;;;5.57;3.30;;;;;;;;;;8267640;28;20030;-57
2023/08/22 22:40:00;;;;;;;6.13;3.30;;;;;;;;;;8269196;28;20021;-57
2023/08/22 22:44:00;;;;;;;6.20;3.60;;;;;;;;;;8270367;28;20030;-56
2023/08/22 22:48:00;;;;;;;6.18;3.05;;;;;;;;;;8269266;28;20108;-57
2023/08/22 22:52:00;;;;;;;4.13;3.27;;;;;;;;;;8272049;28;20538;-57
2023/08/22 22:56:00;;;;;;;5.85;3.30;;;;;;;;;;8270715;28;20653;-57
2023/08/22 23:00:01;;;;;;;4.63;3.60;;;;;;;;;;8271526;28;20026;-57
2023/08/22 23:04:01;;;;;;;6.47;3.60;;;;;;;;;;8273158;28;20501;-57
2023/08/22 23:08:01;;;;;;;6.70;3.85;;;;;;;;;;8275885;28;20584;-56
2023/08/22 23:12:02;;;;;;;7.05;3.67;;;;;;;;;;8273230;28;20026;-57
2023/08/22 23:16:02;;;;;;;7.50;3.60;;;;;;;;;;8273980;28;20053;-57
2023/08/22 23:20:08;;;;;;;5.90;3.85;;;;;;;;;;8275000;28;20057;-57
2023/08/22 23:24:09;;;;;;;8.43;3.97;;;;;;;;;;8274839;28;20029;-60
2023/08/22 23:28:09;;;;;;;6.33;3.83;;;;;;;;;;8273476;28;20013;-57
2023/08/22 23:32:09;;;;;;;7.20;3.60;;;;;;;;;;8275678;28;20049;-57
2023/08/22 23:36:09;;;;;;;7.43;3.70;;;;;;;;;;8271846;28;20025;-57
2023/08/22 23:40:20;;;;;;;6.95;3.97;;;;;;;;;;8270770;28;20371;-57
2023/08/22 23:44:21;;;;;;;6.85;3.95;;;;;;;;;;8274394;28;20910;-60
2023/08/22 23:48:21;;;;;;;6.82;3.72;;;;;;;;;;8274999;28;20040;-57
2023/08/22 23:52:21;;;;;;;6.27;4.20;;;;;;;;;;8274459;28;20056;-57
2023/08/22 23:56:21;;;;;;;7.22;4.05;;;;;;;;;;8273818;28;20032;-57
